sensor_id;sensor_type;location;lat;lon;timestamp;pressure;altitude;pressure_sealevel;temperature;humidity
59170;BME280;52474;52.236;5.114;2022-07-29T00:00:00;101835.22;;;15.73;100.00
59170;BME280;52474;52.236;5.114;2022-07-29T00:02:27;101832.69;;;15.72;100.00
59170;BME280;52474;52.236;5.114;2022-07-29T00:04:53;101838.28;;;15.68;100.00
59170;BME280;52474;52.236;5.114;2022-07-29T00:07:19;101832.81;;;15.70;100.00
59170;BME280;52474;52.236;5.114;2022-07-29T00:09:44;101837.19;;;15.71;100.00
59170;BME280;52474;52.236;5.114;2022-07-29T00:12:10;101812.13;;;15.62;100.00
59170;BME280;52474;52.236;5.114;2022-07-29T00:14:35;101832.81;;;15.70;100.00
59170;BME280;52474;52.236;5.114;2022-07-29T00:17:01;101804.81;;;15.55;100.00
59170;BME280;52474;52.236;5.114;2022-07-29T00:19:27;101821.25;;;15.60;100.00
59170;BME280;52474;52.236;5.114;2022-07-29T00:21:52;101807.75;;;15.52;100.00
59170;BME280;52474;52.236;5.114;2022-07-29T00:24:18;101813.66;;;15.55;100.00
59170;BME280;52474;52.236;5.114;2022-07-29T00:26:44;101795.66;;;15.48;100.00
59170;BME280;52474;52.236;5.114;2022-07-29T00:29:09;101823.38;;;15.56;100.00
59170;BME280;52474;52.236;5.114;2022-07-29T00:31:35;101814.94;;;15.51;100.00
59170;BME280;52474;52.236;5.114;2022-07-29T00:34:01;101807.34;;;15.46;100.00
59170;BME280;52474;52.236;5.114;2022-07-29T00:36:28;101799.47;;;15.45;100.00
59170;BME280;52474;52.236;5.114;2022-07-29T00:38:53;101785.56;;;15.32;100.00
59170;BME280;52474;52.236;5.114;2022-07-29T00:41:19;101784.00;;;15.29;100.00
59170;BME280;52474;52.236;5.114;2022-07-29T00:43:45;101798.63;;;15.35;100.00
59170;BME280;52474;52.236;5.114;2022-07-29T00:46:11;101785.66;;;15.20;100.00
59170;BME280;52474;52.236;5.114;2022-07-29T00:48:37;101802.69;;;15.29;100.00
59170;BME280;52474;52.236;5.114;2022-07-29T00:51:05;101791.59;;;15.24;100.00
59170;BME280;52474;52.236;5.114;2022-07-29T00:53:31;101781.75;;;15.15;100.00
59170;BME280;52474;52.236;5.114;2022-07-29T00:55:58;101787.22;;;15.23;100.00
59170;BME280;52474;52.236;5.114;2022-07-29T00:58:24;101788.75;;;15.16;100.00
59170;BME280;52474;52.236;5.114;2022-07-29T01:00:50;101779.88;;;15.06;100.00
59170;BME280;52474;52.236;5.114;2022-07-29T01:03:15;101784.69;;;15.12;100.00
59170;BME280;52474;52.236;5.114;2022-07-29T01:05:43;101781.31;;;15.10;100.00
59170;BME280;52474;52.236;5.114;2022-07-29T01:08:11;101791.69;;;15.13;100.00
59170;BME280;52474;52.236;5.114;2022-07-29T01:10:38;101779.34;;;15.02;100.00
59170;BME280;52474;52.236;5.114;2022-07-29T01:13:05;101765.41;;;14.98;100.00
59170;BME280;52474;52.236;5.114;2022-07-29T01:15:32;101786.78;;;15.08;100.00
59170;BME280;52474;52.236;5.114;2022-07-29T01:18:16;101780.59;;;15.08;100.00
59170;BME280;52474;52.236;5.114;2022-07-29T01:20:55;101782.44;;;15.07;100.00
59170;BME280;52474;52.236;5.114;2022-07-29T01:26:45;101769.78;;;14.99;100.00
59170;BME280;52474;52.236;5.114;2022-07-29T01:31:57;101794.66;;;15.10;100.00
59170;BME280;52474;52.236;5.114;2022-07-29T01:37:08;101775.66;;;15.03;100.00
59170;BME280;52474;52.236;5.114;2022-07-29T01:39:38;101776.78;;;15.00;100.00
59170;BME280;52474;52.236;5.114;2022-07-29T01:45:08;101765.81;;;14.84;100.00
59170;BME280;52474;52.236;5.114;2022-07-29T01:47:43;101769.56;;;14.81;100.00
59170;BME280;52474;52.236;5.114;2022-07-29T01:50:12;101765.34;;;14.79;100.00
59170;BME280;52474;52.236;5.114;2022-07-29T01:52:52;101779.16;;;14.84;100.00
59170;BME280;52474;52.236;5.114;2022-07-29T01:55:21;101775.06;;;14.80;100.00
59170;BME280;52474;52.236;5.114;2022-07-29T01:57:49;101772.53;;;14.78;100.00
59170;BME280;52474;52.236;5.114;2022-07-29T02:00:15;101757.50;;;14.68;100.00
59170;BME280;52474;52.236;5.114;2022-07-29T02:02:43;101756.66;;;14.67;100.00
59170;BME280;52474;52.236;5.114;2022-07-29T02:05:15;101759.44;;;14.66;100.00
59170;BME280;52474;52.236;5.114;2022-07-29T02:07:42;101761.97;;;14.67;100.00
59170;BME280;52474;52.236;5.114;2022-07-29T02:10:09;101772.50;;;14.69;100.00
59170;BME280;52474;52.236;5.114;2022-07-29T02:12:37;101769.00;;;14.68;100.00
59170;BME280;52474;52.236;5.114;2022-07-29T02:15:05;101770.41;;;14.72;100.00
59170;BME280;52474;52.236;5.114;2022-07-29T02:17:54;101769.69;;;14.70;100.00
59170;BME280;52474;52.236;5.114;2022-07-29T02:20:22;101750.41;;;14.57;100.00
59170;BME280;52474;52.236;5.114;2022-07-29T02:22:50;101777.69;;;14.70;100.00
59170;BME280;52474;52.236;5.114;2022-07-29T02:25:17;101778.53;;;14.71;100.00
59170;BME280;52474;52.236;5.114;2022-07-29T02:27:44;101771.53;;;14.70;100.00
59170;BME280;52474;52.236;5.114;2022-07-29T02:30:11;101756.34;;;14.60;100.00
59170;BME280;52474;52.236;5.114;2022-07-29T02:32:39;101779.53;;;14.70;100.00
59170;BME280;52474;52.236;5.114;2022-07-29T02:35:07;101776.00;;;14.69;100.00
59170;BME280;52474;52.236;5.114;2022-07-29T02:37:33;101750.88;;;14.62;100.00
59170;BME280;52474;52.236;5.114;2022-07-29T02:40:01;101769.69;;;14.70;100.00
59170;BME280;52474;52.236;5.114;2022-07-29T02:42:28;101734.94;;;14.51;100.00
59170;BME280;52474;52.236;5.114;2022-07-29T02:44:55;101752.00;;;14.59;100.00
59170;BME280;52474;52.236;5.114;2022-07-29T02:47:23;101767.31;;;14.67;100.00
59170;BME280;52474;52.236;5.114;2022-07-29T02:50:20;101765.59;;;14.66;100.00
59170;BME280;52474;52.236;5.114;2022-07-29T02:53:08;101764.34;;;14.60;100.00
59170;BME280;52474;52.236;5.114;2022-07-29T02:55:40;101771.09;;;14.65;100.00
59170;BME280;52474;52.236;5.114;2022-07-29T02:58:18;101759.72;;;14.63;100.00
59170;BME280;52474;52.236;5.114;2022-07-29T03:00:48;101771.09;;;14.65;100.00
59170;BME280;52474;52.236;5.114;2022-07-29T03:03:18;101766.44;;;14.67;100.00
59170;BME280;52474;52.236;5.114;2022-07-29T03:05:44;101764.22;;;14.62;100.00
59170;BME280;52474;52.236;5.114;2022-07-29T03:08:12;101751.00;;;14.60;100.00
59170;BME280;52474;52.236;5.114;2022-07-29T03:10:39;101759.56;;;14.64;100.00
59170;BME280;52474;52.236;5.114;2022-07-29T03:13:09;101753.66;;;14.60;100.00
59170;BME280;52474;52.236;5.114;2022-07-29T03:15:35;101757.75;;;14.65;100.00
59170;BME280;52474;52.236;5.114;2022-07-29T03:18:02;101748.91;;;14.64;100.00
59170;BME280;52474;52.236;5.114;2022-07-29T03:20:29;101752.84;;;14.60;100.00
59170;BME280;52474;52.236;5.114;2022-07-29T03:22:54;101749.75;;;14.65;100.00
59170;BME280;52474;52.236;5.114;2022-07-29T03:25:20;101731.19;;;14.53;100.00
59170;BME280;52474;52.236;5.114;2022-07-29T03:27:47;101749.75;;;14.65;100.00
59170;BME280;52474;52.236;5.114;2022-07-29T03:30:13;101736.53;;;14.53;100.00
59170;BME280;52474;52.236;5.114;2022-07-29T03:32:40;101745.69;;;14.60;100.00
59170;BME280;52474;52.236;5.114;2022-07-29T03:35:07;101726.81;;;14.52;100.00
59170;BME280;52474;52.236;5.114;2022-07-29T03:37:33;101747.22;;;14.63;100.00
59170;BME280;52474;52.236;5.114;2022-07-29T03:40:00;101726.81;;;14.52;100.00
59170;BME280;52474;52.236;5.114;2022-07-29T03:42:31;101736.69;;;14.62;100.00
59170;BME280;52474;52.236;5.114;2022-07-29T03:45:02;101739.63;;;14.58;100.00
59170;BME280;52474;52.236;5.114;2022-07-29T03:47:29;101725.53;;;14.47;100.00
59170;BME280;52474;52.236;5.114;2022-07-29T03:50:00;101733.88;;;14.53;100.00
59170;BME280;52474;52.236;5.114;2022-07-29T03:52:27;101734.69;;;14.54;100.00
59170;BME280;52474;52.236;5.114;2022-07-29T03:54:53;101743.66;;;14.53;100.00
59170;BME280;52474;52.236;5.114;2022-07-29T03:57:23;101738.44;;;14.51;100.00
59170;BME280;52474;52.236;5.114;2022-07-29T03:59:51;101722.28;;;14.43;100.00
59170;BME280;52474;52.236;5.114;2022-07-29T04:02:17;101727.91;;;14.40;100.00
59170;BME280;52474;52.236;5.114;2022-07-29T04:04:43;101738.59;;;14.50;100.00
59170;BME280;52474;52.236;5.114;2022-07-29T04:07:12;101732.38;;;14.39;100.00
59170;BME280;52474;52.236;5.114;2022-07-29T04:09:38;101745.16;;;14.46;100.00
59170;BME280;52474;52.236;5.114;2022-07-29T04:12:03;101729.69;;;14.39;100.00
59170;BME280;52474;52.236;5.114;2022-07-29T04:14:31;101736.63;;;14.52;100.00
59170;BME280;52474;52.236;5.114;2022-07-29T04:16:57;101743.22;;;14.48;100.00
59170;BME280;52474;52.236;5.114;2022-07-29T04:19:23;101738.44;;;14.51;100.00
59170;BME280;52474;52.236;5.114;2022-07-29T04:21:48;101723.97;;;14.44;100.00
59170;BME280;52474;52.236;5.114;2022-07-29T04:24:14;101742.69;;;14.54;100.00
59170;BME280;52474;52.236;5.114;2022-07-29T04:26:40;101745.34;;;14.54;100.00
59170;BME280;52474;52.236;5.114;2022-07-29T04:29:06;101733.88;;;14.53;100.00
59170;BME280;52474;52.236;5.114;2022-07-29T04:31:31;101722.00;;;14.46;100.00
59170;BME280;52474;52.236;5.114;2022-07-29T04:33:57;101736.53;;;14.53;100.00
59170;BME280;52474;52.236;5.114;2022-07-29T04:36:23;101745.25;;;14.55;100.00
59170;BME280;52474;52.236;5.114;2022-07-29T04:38:48;101737.69;;;14.60;100.00
59170;BME280;52474;52.236;5.114;2022-07-29T04:41:14;101733.91;;;14.63;100.00
59170;BME280;52474;52.236;5.114;2022-07-29T04:43:39;101727.56;;;14.64;100.00
59170;BME280;52474;52.236;5.114;2022-07-29T04:46:06;101730.81;;;14.68;100.00
59170;BME280;52474;52.236;5.114;2022-07-29T04:48:31;101733.09;;;14.72;100.00
59170;BME280;52474;52.236;5.114;2022-07-29T04:50:57;101744.91;;;14.79;100.00
59170;BME280;52474;52.236;5.114;2022-07-29T04:53:23;101743.50;;;14.85;100.00
59170;BME280;52474;52.236;5.114;2022-07-29T04:55:48;101742.25;;;14.89;100.00
59170;BME280;52474;52.236;5.114;2022-07-29T04:58:14;101743.63;;;14.93;100.00
59170;BME280;52474;52.236;5.114;2022-07-29T05:00:40;101742.69;;;14.94;100.00
59170;BME280;52474;52.236;5.114;2022-07-29T05:03:06;101726.25;;;14.89;100.00
59170;BME280;52474;52.236;5.114;2022-07-29T05:05:32;101743.84;;;15.11;100.00
59170;BME280;52474;52.236;5.114;2022-07-29T05:07:58;101726.94;;;15.01;100.00
59170;BME280;52474;52.236;5.114;2022-07-29T05:10:24;101716.69;;;15.06;100.00
59170;BME280;52474;52.236;5.114;2022-07-29T05:12:50;101745.81;;;15.29;100.00
59170;BME280;52474;52.236;5.114;2022-07-29T05:15:15;101739.19;;;15.33;100.00
59170;BME280;52474;52.236;5.114;2022-07-29T05:17:43;101743.41;;;15.35;100.00
59170;BME280;52474;52.236;5.114;2022-07-29T05:20:09;101720.66;;;15.31;100.00
59170;BME280;52474;52.236;5.114;2022-07-29T05:22:34;101716.47;;;15.38;100.00
59170;BME280;52474;52.236;5.114;2022-07-29T05:25:00;101726.84;;;15.51;100.00
59170;BME280;52474;52.236;5.114;2022-07-29T05:27:26;101742.69;;;15.62;100.00
59170;BME280;52474;52.236;5.114;2022-07-29T05:29:52;101750.44;;;15.56;100.00
59170;BME280;52474;52.236;5.114;2022-07-29T05:32:17;101748.31;;;15.59;100.00
59170;BME280;52474;52.236;5.114;2022-07-29T05:34:43;101729.94;;;15.56;100.00
59170;BME280;52474;52.236;5.114;2022-07-29T05:37:09;101742.97;;;15.59;100.00
59170;BME280;52474;52.236;5.114;2022-07-29T05:39:35;101746.38;;;15.81;100.00
59170;BME280;52474;52.236;5.114;2022-07-29T05:42:00;101723.06;;;15.73;100.00
59170;BME280;52474;52.236;5.114;2022-07-29T05:44:26;101727.97;;;15.78;100.00
59170;BME280;52474;52.236;5.114;2022-07-29T05:46:52;101744.94;;;15.96;100.00
59170;BME280;52474;52.236;5.114;2022-07-29T05:49:18;101749.25;;;16.07;100.00
59170;BME280;52474;52.236;5.114;2022-07-29T05:51:44;101732.00;;;15.92;100.00
59170;BME280;52474;52.236;5.114;2022-07-29T05:54:09;101744.06;;;16.05;100.00
59170;BME280;52474;52.236;5.114;2022-07-29T05:56:36;101746.56;;;16.17;100.00
59170;BME280;52474;52.236;5.114;2022-07-29T05:59:02;101746.31;;;16.10;100.00
59170;BME280;52474;52.236;5.114;2022-07-29T06:01:28;101735.78;;;15.99;100.00
59170;BME280;52474;52.236;5.114;2022-07-29T06:03:54;101736.63;;;15.99;100.00
59170;BME280;52474;52.236;5.114;2022-07-29T06:06:19;101736.34;;;16.02;100.00
59170;BME280;52474;52.236;5.114;2022-07-29T06:08:45;101739.09;;;16.20;100.00
59170;BME280;52474;52.236;5.114;2022-07-29T06:11:11;101744.72;;;16.27;100.00
59170;BME280;52474;52.236;5.114;2022-07-29T06:13:37;101744.75;;;16.17;100.00
59170;BME280;52474;52.236;5.114;2022-07-29T06:16:03;101750.59;;;16.30;100.00
59170;BME280;52474;52.236;5.114;2022-07-29T06:18:29;101760.28;;;16.31;100.00
59170;BME280;52474;52.236;5.114;2022-07-29T06:20:55;101757.38;;;16.25;100.00
59170;BME280;52474;52.236;5.114;2022-07-29T06:23:21;101757.47;;;16.33;100.00
59170;BME280;52474;52.236;5.114;2022-07-29T06:25:46;101740.31;;;16.36;100.00
59170;BME280;52474;52.236;5.114;2022-07-29T06:28:12;101735.56;;;16.57;100.00
59170;BME280;52474;52.236;5.114;2022-07-29T06:30:39;101751.03;;;16.91;100.00
59170;BME280;52474;52.236;5.114;2022-07-29T06:33:05;101744.94;;;17.34;100.00
59170;BME280;52474;52.236;5.114;2022-07-29T06:35:33;101733.66;;;18.11;100.00
59170;BME280;52474;52.236;5.114;2022-07-29T06:38:01;101749.22;;;18.07;100.00
59170;BME280;52474;52.236;5.114;2022-07-29T06:40:26;101746.09;;;18.20;100.00
59170;BME280;52474;52.236;5.114;2022-07-29T06:43:11;101759.09;;;19.50;100.00
59170;BME280;52474;52.236;5.114;2022-07-29T06:45:36;101751.47;;;19.05;100.00
59170;BME280;52474;52.236;5.114;2022-07-29T06:48:04;101758.56;;;18.63;100.00
59170;BME280;52474;52.236;5.114;2022-07-29T06:50:30;101757.50;;;22.60;100.00
59170;BME280;52474;52.236;5.114;2022-07-29T06:52:55;101760.03;;;20.87;100.00
59170;BME280;52474;52.236;5.114;2022-07-29T06:55:21;101774.22;;;19.60;100.00
59170;BME280;52474;52.236;5.114;2022-07-29T06:57:47;101787.94;;;19.16;100.00
59170;BME280;52474;52.236;5.114;2022-07-29T07:00:13;101782.78;;;19.63;100.00
59170;BME280;52474;52.236;5.114;2022-07-29T07:02:38;101779.94;;;21.32;100.00
59170;BME280;52474;52.236;5.114;2022-07-29T07:05:04;101793.06;;;27.04;89.48
59170;BME280;52474;52.236;5.114;2022-07-29T07:07:30;101794.88;;;27.16;73.87
59170;BME280;52474;52.236;5.114;2022-07-29T07:09:56;101798.22;;;23.10;87.67
59170;BME280;52474;52.236;5.114;2022-07-29T07:12:22;101783.69;;;21.54;96.14
59170;BME280;52474;52.236;5.114;2022-07-29T07:14:48;101787.94;;;21.17;100.00
59170;BME280;52474;52.236;5.114;2022-07-29T07:17:14;101779.44;;;22.13;96.17
59170;BME280;52474;52.236;5.114;2022-07-29T07:19:39;101776.75;;;21.75;96.49
59170;BME280;52474;52.236;5.114;2022-07-29T07:22:05;101780.75;;;21.10;100.00
59170;BME280;52474;52.236;5.114;2022-07-29T07:24:31;101781.59;;;21.79;98.17
59170;BME280;52474;52.236;5.114;2022-07-29T07:26:56;101791.41;;;24.35;91.56
59170;BME280;52474;52.236;5.114;2022-07-29T07:29:22;101789.94;;;26.48;80.40
59170;BME280;52474;52.236;5.114;2022-07-29T07:31:48;101790.66;;;25.77;80.41
59170;BME280;52474;52.236;5.114;2022-07-29T07:34:13;101785.25;;;28.95;69.13
59170;BME280;52474;52.236;5.114;2022-07-29T07:36:39;101785.16;;;30.21;63.03
59170;BME280;52474;52.236;5.114;2022-07-29T07:39:05;101781.00;;;29.83;59.59
59170;BME280;52474;52.236;5.114;2022-07-29T07:41:31;101778.69;;;28.84;63.14
59170;BME280;52474;52.236;5.114;2022-07-29T07:43:57;101779.56;;;27.22;66.09
59170;BME280;52474;52.236;5.114;2022-07-29T07:46:22;101770.94;;;26.42;70.43
59170;BME280;52474;52.236;5.114;2022-07-29T07:48:48;101770.56;;;26.25;71.72
59170;BME280;52474;52.236;5.114;2022-07-29T07:51:14;101763.47;;;27.52;69.04
59170;BME280;52474;52.236;5.114;2022-07-29T07:53:39;101760.25;;;28.67;63.67
59170;BME280;52474;52.236;5.114;2022-07-29T07:56:05;101762.38;;;28.65;61.75
59170;BME280;52474;52.236;5.114;2022-07-29T07:58:32;101758.41;;;27.31;62.57
59170;BME280;52474;52.236;5.114;2022-07-29T08:00:58;101759.50;;;26.06;69.57
59170;BME280;52474;52.236;5.114;2022-07-29T08:03:23;101756.28;;;26.56;70.11
59170;BME280;52474;52.236;5.114;2022-07-29T08:05:49;101760.00;;;28.32;66.61
59170;BME280;52474;52.236;5.114;2022-07-29T08:08:17;101749.53;;;27.10;66.10
59170;BME280;52474;52.236;5.114;2022-07-29T08:10:43;101769.41;;;26.66;68.92
59170;BME280;52474;52.236;5.114;2022-07-29T08:13:19;101757.94;;;26.64;69.27
59170;BME280;52474;52.236;5.114;2022-07-29T08:15:46;101769.78;;;25.84;70.11
59170;BME280;52474;52.236;5.114;2022-07-29T08:18:12;101757.66;;;26.00;71.90
59170;BME280;52474;52.236;5.114;2022-07-29T08:20:39;101750.78;;;25.78;69.68
59170;BME280;52474;52.236;5.114;2022-07-29T08:23:07;101758.94;;;24.83;75.30
59170;BME280;52474;52.236;5.114;2022-07-29T08:25:37;101763.84;;;24.53;79.95
59170;BME280;52474;52.236;5.114;2022-07-29T08:28:05;101765.22;;;24.90;77.92
59170;BME280;52474;52.236;5.114;2022-07-29T08:30:31;101751.84;;;24.75;75.42
59170;BME280;52474;52.236;5.114;2022-07-29T08:32:58;101773.25;;;24.63;78.36
59170;BME280;52474;52.236;5.114;2022-07-29T08:35:24;101773.09;;;25.46;75.05
59170;BME280;52474;52.236;5.114;2022-07-29T08:37:51;101759.16;;;25.89;73.76
59170;BME280;52474;52.236;5.114;2022-07-29T08:40:17;101773.72;;;26.15;75.56
59170;BME280;52474;52.236;5.114;2022-07-29T08:42:43;101761.97;;;26.93;70.12
59170;BME280;52474;52.236;5.114;2022-07-29T08:45:09;101782.38;;;27.02;70.62
59170;BME280;52474;52.236;5.114;2022-07-29T08:47:35;101781.91;;;27.12;70.28
59170;BME280;52474;52.236;5.114;2022-07-29T08:50:05;101779.00;;;27.20;68.48
59170;BME280;52474;52.236;5.114;2022-07-29T08:52:32;101783.28;;;26.31;71.81
59170;BME280;52474;52.236;5.114;2022-07-29T08:55:01;101792.41;;;26.63;70.35
59170;BME280;52474;52.236;5.114;2022-07-29T08:57:27;101791.28;;;26.77;68.43
59170;BME280;52474;52.236;5.114;2022-07-29T08:59:54;101797.72;;;27.92;64.83
59170;BME280;52474;52.236;5.114;2022-07-29T09:02:23;101785.28;;;28.21;63.29
59170;BME280;52474;52.236;5.114;2022-07-29T09:04:51;101789.34;;;28.30;61.59
59170;BME280;52474;52.236;5.114;2022-07-29T09:07:18;101791.88;;;28.68;60.39
59170;BME280;52474;52.236;5.114;2022-07-29T09:09:44;101781.16;;;31.50;55.68
59170;BME280;52474;52.236;5.114;2022-07-29T09:12:10;101782.72;;;31.62;53.16
59170;BME280;52474;52.236;5.114;2022-07-29T09:14:39;101777.69;;;31.09;53.86
59170;BME280;52474;52.236;5.114;2022-07-29T09:17:06;101780.63;;;30.38;56.53
59170;BME280;52474;52.236;5.114;2022-07-29T09:19:34;101775.16;;;29.67;56.45
59170;BME280;52474;52.236;5.114;2022-07-29T09:22:03;101758.63;;;28.78;57.38
59170;BME280;52474;52.236;5.114;2022-07-29T09:24:40;101762.84;;;28.93;59.37
59170;BME280;52474;52.236;5.114;2022-07-29T09:27:17;101758.91;;;29.19;60.05
59170;BME280;52474;52.236;5.114;2022-07-29T09:29:44;101753.13;;;30.97;56.16
59170;BME280;52474;52.236;5.114;2022-07-29T09:32:10;101751.59;;;32.68;51.10
59170;BME280;52474;52.236;5.114;2022-07-29T09:34:36;101754.84;;;32.65;49.25
59170;BME280;52474;52.236;5.114;2022-07-29T09:37:03;101754.19;;;31.58;50.89
59170;BME280;52474;52.236;5.114;2022-07-29T09:39:38;101758.81;;;29.91;55.06
59170;BME280;52474;52.236;5.114;2022-07-29T09:42:11;101745.81;;;30.45;54.93
59170;BME280;52474;52.236;5.114;2022-07-29T09:44:49;101762.03;;;29.22;58.04
59170;BME280;52474;52.236;5.114;2022-07-29T09:47:17;101767.63;;;28.79;60.51
59170;BME280;52474;52.236;5.114;2022-07-29T09:49:56;101763.53;;;32.35;57.51
59170;BME280;52474;52.236;5.114;2022-07-29T09:52:24;101756.31;;;34.02;50.61
59170;BME280;52474;52.236;5.114;2022-07-29T09:54:50;101743.50;;;33.70;48.53
59170;BME280;52474;52.236;5.114;2022-07-29T09:57:26;101758.13;;;33.49;47.17
59170;BME280;52474;52.236;5.114;2022-07-29T10:00:02;101748.72;;;34.14;48.24
59170;BME280;52474;52.236;5.114;2022-07-29T10:02:39;101762.97;;;34.69;45.52
59170;BME280;52474;52.236;5.114;2022-07-29T10:05:15;101767.13;;;34.14;46.61
59170;BME280;52474;52.236;5.114;2022-07-29T10:10:11;101767.38;;;34.70;44.66
59170;BME280;52474;52.236;5.114;2022-07-29T10:13:13;101766.22;;;33.61;45.50
59170;BME280;52474;52.236;5.114;2022-07-29T10:15:41;101760.94;;;33.22;46.20
59170;BME280;52474;52.236;5.114;2022-07-29T10:18:11;101768.66;;;33.94;46.04
59170;BME280;52474;52.236;5.114;2022-07-29T10:20:37;101760.06;;;34.38;46.90
59170;BME280;52474;52.236;5.114;2022-07-29T10:23:04;101757.28;;;35.22;44.65
59170;BME280;52474;52.236;5.114;2022-07-29T10:25:30;101758.41;;;35.26;43.99
59170;BME280;52474;52.236;5.114;2022-07-29T10:27:56;101752.41;;;34.51;44.63
59170;BME280;52474;52.236;5.114;2022-07-29T10:30:24;101758.38;;;35.00;43.26
59170;BME280;52474;52.236;5.114;2022-07-29T10:35:40;101755.59;;;33.74;45.48
59170;BME280;52474;52.236;5.114;2022-07-29T10:43:59;101748.22;;;35.11;42.48
59170;BME280;52474;52.236;5.114;2022-07-29T10:46:26;101755.94;;;35.35;42.59
59170;BME280;52474;52.236;5.114;2022-07-29T10:49:06;101759.84;;;34.50;42.55
59170;BME280;52474;52.236;5.114;2022-07-29T10:51:55;101763.75;;;32.34;45.23
59170;BME280;52474;52.236;5.114;2022-07-29T10:59:43;101759.94;;;29.60;53.09
59170;BME280;52474;52.236;5.114;2022-07-29T11:04:59;101750.56;;;31.07;50.58
59170;BME280;52474;52.236;5.114;2022-07-29T11:07:26;101760.44;;;29.57;51.70
59170;BME280;52474;52.236;5.114;2022-07-29T11:15:06;101746.38;;;27.45;62.15
59170;BME280;52474;52.236;5.114;2022-07-29T11:20:43;101760.94;;;31.90;52.99
59170;BME280;52474;52.236;5.114;2022-07-29T11:28:39;101751.34;;;32.26;49.69
59170;BME280;52474;52.236;5.114;2022-07-29T11:31:13;101751.91;;;32.72;49.36
59170;BME280;52474;52.236;5.114;2022-07-29T11:33:41;101752.53;;;32.52;48.32
59170;BME280;52474;52.236;5.114;2022-07-29T11:36:08;101749.19;;;31.21;50.73
59170;BME280;52474;52.236;5.114;2022-07-29T11:38:35;101755.59;;;31.61;49.95
59170;BME280;52474;52.236;5.114;2022-07-29T11:41:20;101760.72;;;31.74;50.25
59170;BME280;52474;52.236;5.114;2022-07-29T11:46:43;101756.00;;;31.70;50.72
59170;BME280;52474;52.236;5.114;2022-07-29T11:49:10;101755.75;;;31.71;52.42
59170;BME280;52474;52.236;5.114;2022-07-29T11:51:36;101758.03;;;32.13;50.64
59170;BME280;52474;52.236;5.114;2022-07-29T11:54:04;101761.22;;;32.27;50.56
59170;BME280;52474;52.236;5.114;2022-07-29T11:56:34;101761.94;;;32.17;50.32
59170;BME280;52474;52.236;5.114;2022-07-29T11:59:05;101759.41;;;31.60;52.67
59170;BME280;52474;52.236;5.114;2022-07-29T12:01:31;101754.13;;;29.56;54.21
59170;BME280;52474;52.236;5.114;2022-07-29T12:04:07;101741.56;;;31.74;53.07
59170;BME280;52474;52.236;5.114;2022-07-29T12:06:36;101748.72;;;31.58;53.14
59170;BME280;52474;52.236;5.114;2022-07-29T12:09:08;101754.34;;;31.69;53.40
59170;BME280;52474;52.236;5.114;2022-07-29T12:11:34;101748.38;;;31.55;52.31
59170;BME280;52474;52.236;5.114;2022-07-29T12:14:00;101748.63;;;30.79;52.00
59170;BME280;52474;52.236;5.114;2022-07-29T12:16:35;101750.03;;;30.65;50.39
59170;BME280;52474;52.236;5.114;2022-07-29T12:19:03;101763.09;;;30.63;52.93
59170;BME280;52474;52.236;5.114;2022-07-29T12:21:43;101761.28;;;30.04;54.86
59170;BME280;52474;52.236;5.114;2022-07-29T12:24:08;101753.31;;;30.14;53.75
59170;BME280;52474;52.236;5.114;2022-07-29T12:26:34;101760.06;;;30.24;52.17
59170;BME280;52474;52.236;5.114;2022-07-29T12:29:00;101759.81;;;30.49;51.83
59170;BME280;52474;52.236;5.114;2022-07-29T12:31:26;101755.22;;;30.37;50.76
59170;BME280;52474;52.236;5.114;2022-07-29T12:33:53;101763.56;;;29.95;51.37
59170;BME280;52474;52.236;5.114;2022-07-29T12:36:19;101770.88;;;29.60;52.24
59170;BME280;52474;52.236;5.114;2022-07-29T12:38:45;101757.00;;;29.61;54.15
59170;BME280;52474;52.236;5.114;2022-07-29T12:41:12;101745.69;;;29.34;52.72
59170;BME280;52474;52.236;5.114;2022-07-29T12:43:37;101762.09;;;29.16;54.26
59170;BME280;52474;52.236;5.114;2022-07-29T12:46:14;101763.78;;;29.94;54.44
59170;BME280;52474;52.236;5.114;2022-07-29T12:48:41;101760.81;;;29.84;54.05
59170;BME280;52474;52.236;5.114;2022-07-29T12:51:08;101758.81;;;29.91;53.78
59170;BME280;52474;52.236;5.114;2022-07-29T12:53:35;101746.56;;;29.93;53.71
59170;BME280;52474;52.236;5.114;2022-07-29T12:56:02;101754.50;;;30.18;53.26
59170;BME280;52474;52.236;5.114;2022-07-29T13:01:06;101738.94;;;28.76;53.84
59170;BME280;52474;52.236;5.114;2022-07-29T13:03:56;101747.41;;;28.86;56.72
59170;BME280;52474;52.236;5.114;2022-07-29T13:09:07;101755.88;;;29.27;54.95
59170;BME280;52474;52.236;5.114;2022-07-29T13:11:34;101749.13;;;29.29;58.52
59170;BME280;52474;52.236;5.114;2022-07-29T13:14:01;101746.66;;;28.79;57.04
59170;BME280;52474;52.236;5.114;2022-07-29T13:16:27;101750.75;;;29.30;57.42
59170;BME280;52474;52.236;5.114;2022-07-29T13:19:12;101750.84;;;28.63;60.05
59170;BME280;52474;52.236;5.114;2022-07-29T13:21:38;101753.16;;;28.48;60.57
59170;BME280;52474;52.236;5.114;2022-07-29T13:24:06;101751.00;;;28.50;60.76
59170;BME280;52474;52.236;5.114;2022-07-29T13:26:32;101753.38;;;28.28;59.69
59170;BME280;52474;52.236;5.114;2022-07-29T13:28:58;101755.06;;;28.78;61.03
59170;BME280;52474;52.236;5.114;2022-07-29T13:31:23;101755.56;;;28.86;60.23
59170;BME280;52474;52.236;5.114;2022-07-29T13:33:49;101741.59;;;28.64;60.11
59170;BME280;52474;52.236;5.114;2022-07-29T13:36:15;101758.56;;;28.97;63.78
59170;BME280;52474;52.236;5.114;2022-07-29T13:38:41;101746.69;;;28.91;60.13
59170;BME280;52474;52.236;5.114;2022-07-29T13:41:07;101744.38;;;28.95;61.19